Perryville, Louisiana
Current Conditions -  °F | °C
As of 6:35 PM on Saturday 25 Oct 2014 (Local Time) from KBQP Reporting Station
Clear Clear  
Wind Chill: 68°   Ceiling: Unl
Heat Index: 68°   Visibility: 10mi
Dew Point: 64°   Wind: 0mph
Humidity: 84%   Direction: NA
Pressure: 30.07"   Gusts: NA
Location:  32.8721°N, 91.912°W
Report Text: KBQP 252335Z AUTO 00000KT 10SM CLR 20/18 A3007 RMK AO2 T02020175
Loading
Personal Weather Stations






























Interactive Weather Map
Tropical Storm Tracking
New forecast layout! Learn more

10-Day Weather Forecast

Advertisements
Track Severe Weather on mobile